Time;durP1;ratioP1;P1;durP2;ratioP2;P2;SDS_P1;SDS_P2;PMS_P1;PMS_P2;Temp;Humidity;BMP_temperature;BMP_pressure;BME280_temperature;BME280_humidity;BME280_pressure;Samples;Min_cycle;Max_cycle;Signal;HPM_P1;HPM_P2
2021/09/01 00:00:53;;;;;;;13.65;4.60;;;16.10;99.90;;;;;;5089171;28;20052;-62
2021/09/01 00:03:19;;;;;;;18.17;4.72;;;16.10;99.90;;;;;;5086585;28;20055;-63
2021/09/01 00:05:45;;;;;;;16.58;5.30;;;16.10;99.90;;;;;;5085843;28;20048;-63
2021/09/01 00:08:11;;;;;;;17.67;5.10;;;16.10;99.90;;;;;;5081386;28;20052;-63
2021/09/01 00:10:37;;;;;;;17.55;5.15;;;16.10;99.90;;;;;;5105052;28;20044;-64
2021/09/01 00:13:03;;;;;;;13.52;4.97;;;16.10;99.90;;;;;;5075040;28;20048;-62
2021/09/01 00:15:29;;;;;;;14.18;5.20;;;16.10;99.90;;;;;;5069097;28;20060;-63
2021/09/01 00:17:55;;;;;;;15.05;5.75;;;16.10;99.90;;;;;;5070032;28;20480;-63
2021/09/01 00:20:25;;;;;;;14.48;5.07;;;16.10;99.90;;;;;;5085540;28;20137;-63
2021/09/01 00:22:51;;;;;;;19.48;5.60;;;16.10;99.90;;;;;;5104563;28;20507;-64
2021/09/01 00:25:17;;;;;;;17.70;5.47;;;16.10;99.90;;;;;;5109034;27;20059;-63
2021/09/01 00:27:43;;;;;;;17.75;5.68;;;16.10;99.90;;;;;;5086906;28;20052;-62
2021/09/01 00:30:09;;;;;;;14.15;5.30;;;16.10;99.90;;;;;;5087117;28;20046;-64
2021/09/01 00:32:35;;;;;;;14.43;5.63;;;16.10;99.90;;;;;;5082051;28;20492;-63
2021/09/01 00:35:02;;;;;;;17.38;5.32;;;16.00;99.90;;;;;;5088553;28;20062;-63
2021/09/01 00:37:28;;;;;;;23.02;6.20;;;16.10;99.90;;;;;;5080540;28;20068;-66
2021/09/01 00:39:54;;;;;;;14.98;4.45;;;16.00;99.90;;;;;;5087769;28;20687;-65
2021/09/01 00:42:20;;;;;;;12.77;3.97;;;16.00;99.90;;;;;;5092693;28;20064;-63
2021/09/01 00:44:46;;;;;;;14.98;6.13;;;16.10;99.90;;;;;;5068061;28;20071;-63
2021/09/01 00:47:16;;;;;;;12.05;4.97;;;16.10;99.90;;;;;;5069003;28;20047;-63
2021/09/01 00:49:42;;;;;;;16.80;5.50;;;16.10;99.90;;;;;;5087351;28;20067;-63
2021/09/01 00:52:08;;;;;;;12.07;4.68;;;16.10;99.90;;;;;;5081309;28;20567;-62
2021/09/01 00:54:37;;;;;;;17.58;5.53;;;16.00;99.90;;;;;;5101714;27;20165;-64
2021/09/01 00:57:05;;;;;;;13.60;5.07;;;16.10;99.90;;;;;;5075043;28;20511;-63
2021/09/01 00:59:37;;;;;;;13.05;5.18;;;16.10;99.90;;;;;;5068550;28;20086;-63
2021/09/01 01:02:03;;;;;;;14.57;5.27;;;16.10;99.90;;;;;;5072781;28;20124;-63
2021/09/01 01:04:30;;;;;;;12.55;5.47;;;16.10;99.90;;;;;;5082809;28;20074;-63
2021/09/01 01:07:02;;;;;;;18.05;4.97;;;16.10;99.90;;;;;;5105163;28;20053;-63
2021/09/01 01:09:29;;;;;;;12.15;5.07;;;16.10;99.90;;;;;;5084122;28;20094;-63
2021/09/01 01:12:05;;;;;;;15.60;4.80;;;16.10;99.90;;;;;;5088329;28;20052;-63
2021/09/01 01:14:40;;;;;;;13.25;5.95;;;16.10;99.90;;;;;;5087334;28;20052;-64
2021/09/01 01:17:15;;;;;;;10.57;5.45;;;16.00;99.90;;;;;;5068559;28;20049;-62
2021/09/01 01:19:45;;;;;;;16.42;5.40;;;16.00;99.90;;;;;;5067935;28;20052;-63
2021/09/01 01:22:19;;;;;;;14.93;5.38;;;16.00;99.90;;;;;;5069479;28;20048;-63
2021/09/01 01:25:26;;;;;;;15.27;4.95;;;15.90;99.90;;;;;;5085427;28;20071;-63
2021/09/01 01:27:52;;;;;;;18.20;5.85;;;15.90;99.90;;;;;;5088379;28;20117;-62
2021/09/01 01:30:21;;;;;;;14.48;4.93;;;15.90;99.90;;;;;;5085729;28;20060;-63
2021/09/01 01:32:49;;;;;;;15.63;6.05;;;15.90;99.90;;;;;;5089709;28;20052;-62
2021/09/01 01:35:28;;;;;;;16.52;6.10;;;15.90;99.90;;;;;;5085347;28;20555;-62
2021/09/01 01:37:57;;;;;;;16.13;6.28;;;15.90;99.90;;;;;;5085962;28;20594;-64
2021/09/01 01:40:24;;;;;;;18.75;5.85;;;15.90;99.90;;;;;;5084957;28;20083;-62
2021/09/01 01:42:56;;;;;;;17.30;5.97;;;15.90;99.90;;;;;;5069096;28;20063;-63
2021/09/01 01:45:43;;;;;;;12.40;4.95;;;15.90;99.90;;;;;;5071485;28;20059;-62
2021/09/01 01:48:10;;;;;;;18.40;5.68;;;15.90;99.90;;;;;;5068843;28;20048;-62
2021/09/01 01:50:37;;;;;;;18.00;6.03;;;15.80;99.90;;;;;;5068453;28;20056;-63
2021/09/01 01:53:05;;;;;;;18.42;6.32;;;15.80;99.90;;;;;;5084066;28;20135;-63
2021/09/01 01:55:31;;;;;;;15.40;6.15;;;15.80;99.90;;;;;;5080324;28;20056;-63
2021/09/01 01:57:57;;;;;;;19.50;5.60;;;15.70;99.90;;;;;;5077145;28;20053;-63
2021/09/01 02:00:24;;;;;;;18.15;6.78;;;15.80;99.90;;;;;;5077427;28;20063;-62
2021/09/01 02:02:50;;;;;;;17.80;6.07;;;15.80;99.90;;;;;;5087675;28;20048;-64
2021/09/01 02:05:16;;;;;;;18.10;6.25;;;15.80;99.90;;;;;;5079032;28;20083;-63
2021/09/01 02:07:42;;;;;;;14.35;5.38;;;15.80;99.90;;;;;;5100683;28;20091;-64
2021/09/01 02:10:09;;;;;;;16.25;5.80;;;15.80;99.90;;;;;;5080515;28;20127;-63
2021/09/01 02:12:37;;;;;;;17.98;6.05;;;15.80;99.90;;;;;;5108546;28;20410;-63
2021/09/01 02:15:04;;;;;;;13.68;5.60;;;15.80;99.90;;;;;;5091258;28;20530;-63
2021/09/01 02:17:31;;;;;;;16.88;5.25;;;15.80;99.90;;;;;;5091857;28;20515;-63
2021/09/01 02:19:57;;;;;;;18.08;5.65;;;15.70;99.90;;;;;;5076568;28;20052;-63
2021/09/01 02:22:23;;;;;;;13.25;4.97;;;15.70;99.90;;;;;;5072015;28;20056;-63
2021/09/01 02:24:51;;;;;;;15.25;6.03;;;15.80;99.90;;;;;;5087414;28;20048;-63
2021/09/01 02:27:18;;;;;;;18.40;6.18;;;15.80;99.90;;;;;;5086958;28;20052;-62
2021/09/01 02:29:44;;;;;;;14.82;5.85;;;15.80;99.90;;;;;;5086896;28;20056;-63
2021/09/01 02:32:10;;;;;;;18.20;5.47;;;15.80;99.90;;;;;;5091228;28;20131;-63
2021/09/01 02:34:37;;;;;;;17.23;6.38;;;15.80;99.90;;;;;;5078447;28;20061;-63
2021/09/01 02:37:05;;;;;;;12.55;5.03;;;15.70;99.90;;;;;;5091202;28;20056;-63
2021/09/01 02:39:31;;;;;;;19.23;6.10;;;15.70;99.90;;;;;;5099501;28;20289;-62
2021/09/01 02:41:57;;;;;;;15.70;5.47;;;15.70;99.90;;;;;;5085844;28;20131;-62
2021/09/01 02:44:23;;;;;;;13.77;4.95;;;15.70;99.90;;;;;;5077633;28;20078;-62
2021/09/01 02:46:53;;;;;;;14.13;5.68;;;15.70;99.90;;;;;;5088128;28;20052;-65
2021/09/01 02:49:19;;;;;;;15.50;5.40;;;15.70;99.90;;;;;;5089421;28;20663;-63
2021/09/01 02:51:45;;;;;;;15.93;6.03;;;15.70;99.90;;;;;;5076788;28;20056;-63
2021/09/01 02:54:11;;;;;;;15.30;5.53;;;15.70;99.90;;;;;;5080964;28;20514;-64
2021/09/01 02:56:37;;;;;;;15.52;5.63;;;15.70;99.90;;;;;;5084903;28;20488;-64
2021/09/01 02:59:03;;;;;;;15.43;5.50;;;15.70;99.90;;;;;;5092937;28;20052;-63
2021/09/01 03:01:29;;;;;;;20.55;6.18;;;15.70;99.90;;;;;;5099823;28;20055;-64
2021/09/01 03:03:55;;;;;;;15.95;5.72;;;15.70;99.90;;;;;;5084439;28;20136;-63
2021/09/01 03:06:21;;;;;;;15.25;5.47;;;15.70;99.90;;;;;;5073564;28;20162;-64
2021/09/01 03:08:47;;;;;;;15.52;5.50;;;15.60;99.90;;;;;;5080690;28;20512;-63
2021/09/01 03:11:13;;;;;;;11.20;5.15;;;15.70;99.90;;;;;;5075497;28;20044;-62
2021/09/01 03:13:39;;;;;;;15.02;5.60;;;15.70;99.90;;;;;;5070944;28;20131;-63
2021/09/01 03:16:05;;;;;;;13.18;5.82;;;15.60;99.90;;;;;;5068729;28;20095;-63
2021/09/01 03:18:32;;;;;;;16.33;6.03;;;15.70;99.90;;;;;;5073217;28;20052;-63
2021/09/01 03:20:58;;;;;;;16.35;5.85;;;15.60;99.90;;;;;;5068460;28;20389;-63
2021/09/01 03:23:24;;;;;;;17.73;6.00;;;15.60;99.90;;;;;;5072186;28;20135;-64
2021/09/01 03:25:49;;;;;;;15.07;5.57;;;15.60;99.90;;;;;;5088019;28;20633;-63
2021/09/01 03:28:15;;;;;;;19.83;6.38;;;15.60;99.90;;;;;;5083638;28;20047;-63
2021/09/01 03:30:42;;;;;;;12.45;5.57;;;15.60;99.90;;;;;;5089692;28;20052;-62
2021/09/01 03:33:08;;;;;;;16.23;5.72;;;15.60;99.90;;;;;;5082346;28;20447;-63
2021/09/01 03:35:34;;;;;;;14.30;6.35;;;15.50;99.90;;;;;;5069771;28;20053;-62
2021/09/01 03:38:00;;;;;;;14.55;6.38;;;15.60;99.90;;;;;;5085405;28;20082;-63
2021/09/01 03:40:26;;;;;;;15.65;5.85;;;15.60;99.90;;;;;;5087919;28;20591;-62
2021/09/01 03:42:52;;;;;;;21.60;6.05;;;15.50;99.90;;;;;;5080909;28;20056;-64
2021/09/01 03:45:18;;;;;;;17.20;6.75;;;15.50;99.90;;;;;;5088876;28;20557;-64
2021/09/01 03:47:44;;;;;;;14.95;6.20;;;15.50;99.90;;;;;;5089434;28;20249;-63
2021/09/01 03:50:12;;;;;;;17.45;6.25;;;15.50;99.90;;;;;;5089061;28;20075;-62
2021/09/01 03:52:38;;;;;;;10.43;5.88;;;15.50;99.90;;;;;;5088043;28;20082;-62
2021/09/01 03:55:08;;;;;;;17.50;6.35;;;15.40;99.90;;;;;;5074251;28;20472;-64
2021/09/01 03:57:38;;;;;;;16.23;5.07;;;15.50;99.90;;;;;;5078766;28;20456;-62
2021/09/01 04:00:06;;;;;;;15.15;5.13;;;15.50;99.90;;;;;;5071144;28;20054;-64
2021/09/01 04:02:37;;;;;;;13.65;6.03;;;15.50;99.90;;;;;;5089173;28;20048;-63
2021/09/01 04:05:04;;;;;;;16.30;6.70;;;15.40;99.90;;;;;;5112319;27;20052;-63
2021/09/01 04:07:30;;;;;;;15.10;5.60;;;15.50;99.90;;;;;;5061709;28;20133;-64
2021/09/01 04:09:56;;;;;;;13.65;5.28;;;15.50;99.90;;;;;;5069617;28;20071;-62
2021/09/01 04:12:22;;;;;;;17.67;6.78;;;15.50;99.90;;;;;;5084722;28;20060;-64
2021/09/01 04:14:48;;;;;;;17.45;5.63;;;15.50;99.90;;;;;;5087561;28;20101;-62
2021/09/01 04:17:14;;;;;;;12.77;5.53;;;15.50;99.90;;;;;;5101961;28;20131;-64
2021/09/01 04:19:40;;;;;;;17.55;5.80;;;15.50;99.90;;;;;;5067832;28;20472;-63
2021/09/01 04:22:06;;;;;;;13.77;5.30;;;15.50;99.90;;;;;;5074210;28;20059;-62
2021/09/01 04:24:32;;;;;;;19.88;6.50;;;15.50;99.90;;;;;;5068639;28;20056;-63
2021/09/01 04:26:58;;;;;;;11.80;5.72;;;15.50;99.90;;;;;;5073309;28;20123;-63
2021/09/01 04:29:25;;;;;;;15.63;6.07;;;15.40;99.90;;;;;;5089529;28;20158;-63
2021/09/01 04:31:51;;;;;;;14.63;5.22;;;15.50;99.90;;;;;;5081792;28;20040;-63
2021/09/01 04:34:17;;;;;;;14.10;5.50;;;15.50;99.90;;;;;;5085454;28;20400;-63
2021/09/01 04:36:43;;;;;;;12.65;5.60;;;15.40;99.90;;;;;;5080455;28;20054;-63
2021/09/01 04:39:09;;;;;;;15.95;6.30;;;15.50;99.90;;;;;;5067451;28;20061;-64
2021/09/01 04:41:35;;;;;;;12.43;5.93;;;15.40;99.90;;;;;;5074025;28;20408;-63
2021/09/01 04:44:01;;;;;;;15.00;6.65;;;15.40;99.90;;;;;;5079747;28;20040;-63
2021/09/01 04:46:27;;;;;;;13.57;5.68;;;15.40;99.90;;;;;;5078742;28;20238;-62
2021/09/01 04:48:53;;;;;;;16.38;5.90;;;15.40;99.90;;;;;;5069846;28;20159;-63
2021/09/01 04:51:19;;;;;;;13.80;5.68;;;15.30;99.90;;;;;;5068037;28;20090;-63
2021/09/01 04:53:45;;;;;;;16.67;6.97;;;15.40;99.90;;;;;;5073494;28;20060;-63
2021/09/01 04:56:11;;;;;;;15.80;6.05;;;15.30;99.90;;;;;;5075977;28;20817;-64
2021/09/01 04:58:37;;;;;;;16.08;6.55;;;15.30;99.90;;;;;;5071510;28;20064;-63
2021/09/01 05:01:03;;;;;;;13.60;5.95;;;15.30;99.90;;;;;;5051686;28;20143;-63
2021/09/01 05:03:29;;;;;;;17.08;6.78;;;15.30;99.90;;;;;;5067707;28;20048;-63
2021/09/01 05:05:55;;;;;;;17.15;6.90;;;15.30;99.90;;;;;;5069087;28;20124;-63
2021/09/01 05:08:21;;;;;;;16.08;6.38;;;15.30;99.90;;;;;;5068696;28;20463;-62
2021/09/01 05:10:47;;;;;;;15.75;6.50;;;15.30;99.90;;;;;;5067423;28;20056;-63
2021/09/01 05:13:13;;;;;;;12.90;5.97;;;15.30;99.90;;;;;;5076454;28;20059;-64
2021/09/01 05:15:42;;;;;;;14.25;5.65;;;15.30;99.90;;;;;;5087951;28;20040;-63
2021/09/01 05:18:08;;;;;;;14.88;6.53;;;15.30;99.90;;;;;;5087733;28;20060;-59
2021/09/01 05:20:38;;;;;;;20.35;9.10;;;15.30;99.90;;;;;;5086195;28;20885;-63
2021/09/01 05:23:07;;;;;;;15.57;6.95;;;15.50;99.90;;;;;;5067094;28;20059;-64
2021/09/01 05:26:00;;;;;;;15.93;6.88;;;15.50;99.90;;;;;;5083832;28;20051;-63
2021/09/01 05:28:30;;;;;;;18.58;7.05;;;15.40;99.90;;;;;;5077425;28;20524;-64
2021/09/01 05:31:03;;;;;;;28.88;18.88;;;15.40;99.90;;;;;;5047149;28;20187;-64
2021/09/01 05:33:34;;;;;;;13.90;6.97;;;15.40;99.90;;;;;;5067957;28;20052;-65
2021/09/01 05:36:00;;;;;;;26.65;14.93;;;15.40;99.90;;;;;;5085649;28;20052;-64
2021/09/01 05:38:29;;;;;;;20.55;13.25;;;15.40;99.90;;;;;;5085150;28;20051;-64
2021/09/01 05:40:57;;;;;;;16.98;6.43;;;15.40;99.90;;;;;;5085044;28;20423;-64
2021/09/01 05:43:23;;;;;;;17.60;9.00;;;15.50;99.90;;;;;;5084940;28;20055;-64
2021/09/01 05:45:50;;;;;;;13.80;7.00;;;15.50;99.90;;;;;;5085220;28;20101;-64
2021/09/01 05:48:21;;;;;;;16.67;8.82;;;15.50;99.90;;;;;;5077789;28;20413;-63
2021/09/01 05:50:53;;;;;;;13.05;6.40;;;15.50;99.90;;;;;;5078774;28;20056;-64
2021/09/01 05:53:20;;;;;;;18.63;8.15;;;15.40;99.90;;;;;;5090196;28;20048;-64
2021/09/01 05:55:50;;;;;;;15.15;6.93;;;15.50;99.90;;;;;;5089018;28;20048;-63
2021/09/01 05:58:19;;;;;;;15.23;6.43;;;15.50;99.90;;;;;;5085186;28;20560;-64
2021/09/01 06:01:01;;;;;;;18.88;6.30;;;15.50;99.90;;;;;;5071073;28;20052;-64
2021/09/01 06:03:34;;;;;;;11.95;6.40;;;15.50;99.90;;;;;;5085706;28;20090;-65
2021/09/01 06:06:02;;;;;;;17.08;6.03;;;15.60;99.90;;;;;;5085599;28;20558;-64
2021/09/01 06:08:33;;;;;;;15.10;5.90;;;15.50;99.90;;;;;;5088259;28;20105;-63
2021/09/01 06:11:04;;;;;;;14.23;7.07;;;15.60;99.90;;;;;;5055849;28;20494;-64
2021/09/01 06:13:32;;;;;;;19.38;11.35;;;15.60;99.90;;;;;;5088281;28;20052;-63
2021/09/01 06:15:58;;;;;;;19.27;7.97;;;15.60;99.90;;;;;;5069108;28;20048;-64
2021/09/01 06:18:25;;;;;;;18.13;6.80;;;15.70;99.90;;;;;;5112938;27;20103;-64
2021/09/01 06:20:54;;;;;;;16.88;6.63;;;15.70;99.90;;;;;;5085812;28;20097;-64
2021/09/01 06:23:24;;;;;;;18.98;7.70;;;15.70;99.90;;;;;;5062808;28;20567;-68
2021/09/01 06:25:50;;;;;;;19.90;12.88;;;15.70;99.90;;;;;;5089003;28;20048;-64
2021/09/01 06:28:16;;;;;;;22.05;13.25;;;15.70;99.90;;;;;;5073031;28;20055;-64
2021/09/01 06:30:42;;;;;;;21.58;8.18;;;15.80;99.90;;;;;;5081663;28;20049;-63
2021/09/01 06:33:08;;;;;;;17.08;9.18;;;15.80;99.90;;;;;;5089774;28;20060;-63
2021/09/01 06:35:35;;;;;;;34.65;26.02;;;15.80;99.90;;;;;;5077956;28;20416;-64
2021/09/01 06:38:02;;;;;;;16.60;7.05;;;15.80;99.90;;;;;;5089726;28;20055;-64
2021/09/01 06:40:31;;;;;;;14.07;5.90;;;15.90;99.90;;;;;;5085036;28;20059;-63
2021/09/01 06:42:57;;;;;;;15.27;7.65;;;15.80;99.90;;;;;;5102352;27;20056;-63
2021/09/01 06:45:24;;;;;;;14.70;6.93;;;15.80;99.90;;;;;;5082371;28;20056;-64
2021/09/01 06:47:53;;;;;;;17.83;6.75;;;15.90;99.90;;;;;;5067263;28;20056;-63
2021/09/01 06:50:24;;;;;;;14.73;6.30;;;15.90;99.90;;;;;;5070505;28;20061;-65
2021/09/01 06:52:51;;;;;;;14.02;6.05;;;16.00;99.90;;;;;;5069108;28;20080;-63
2021/09/01 06:55:20;;;;;;;16.25;5.90;;;16.10;99.90;;;;;;5054514;28;20088;-65
2021/09/01 06:57:46;;;;;;;21.38;9.10;;;16.20;99.90;;;;;;5086645;28;20044;-62
2021/09/01 07:00:15;;;;;;;17.20;6.18;;;16.20;99.90;;;;;;5072145;28;20037;-60
2021/09/01 07:02:42;;;;;;;16.77;8.43;;;16.20;99.90;;;;;;5073398;28;20082;-61
2021/09/01 07:05:11;;;;;;;14.00;6.30;;;16.30;99.90;;;;;;5086380;28;20693;-61
2021/09/01 07:07:38;;;;;;;15.90;5.95;;;16.30;99.90;;;;;;5088974;28;20059;-60
2021/09/01 07:10:04;;;;;;;14.52;6.43;;;16.30;99.90;;;;;;5077538;28;20111;-61
2021/09/01 07:12:34;;;;;;;130.82;117.40;;;16.40;99.90;;;;;;5075322;28;20048;-61
2021/09/01 07:15:01;;;;;;;18.27;6.45;;;16.50;99.90;;;;;;5075056;28;20047;-63
2021/09/01 07:17:30;;;;;;;15.70;5.70;;;16.50;99.90;;;;;;5088965;28;20052;-64
2021/09/01 07:19:57;;;;;;;9.70;5.32;;;16.50;99.90;;;;;;5069758;28;20084;-63
2021/09/01 07:22:23;;;;;;;15.38;5.82;;;16.50;99.90;;;;;;5068367;28;20192;-62
2021/09/01 07:24:49;;;;;;;13.70;5.45;;;16.50;99.90;;;;;;5102281;28;20117;-63
2021/09/01 07:27:15;;;;;;;14.02;6.22;;;16.60;99.90;;;;;;5070962;28;20052;-64
2021/09/01 07:29:40;;;;;;;12.98;5.18;;;16.60;99.90;;;;;;5068315;28;20060;-62
2021/09/01 07:32:07;;;;;;;15.65;6.15;;;16.70;99.90;;;;;;5069909;28;20048;-63
2021/09/01 07:34:33;;;;;;;14.93;5.82;;;16.80;99.90;;;;;;5080335;28;20525;-61
2021/09/01 07:36:59;;;;;;;13.70;5.80;;;16.80;99.90;;;;;;5088229;28;20531;-64
2021/09/01 07:39:25;;;;;;;14.80;6.05;;;16.90;99.90;;;;;;5088835;28;20760;-63
2021/09/01 07:41:51;;;;;;;13.02;5.38;;;16.90;99.90;;;;;;5088392;28;20048;-62
2021/09/01 07:44:17;;;;;;;13.18;5.03;;;16.90;99.90;;;;;;5088109;28;20075;-62
2021/09/01 07:46:45;;;;;;;13.07;5.75;;;17.00;99.90;;;;;;5088568;28;20067;-62
2021/09/01 07:49:11;;;;;;;14.38;5.07;;;17.00;99.90;;;;;;5073573;28;20502;-62
2021/09/01 07:51:37;;;;;;;14.50;5.28;;;17.10;99.90;;;;;;5069220;28;20144;-63
2021/09/01 07:54:03;;;;;;;14.70;5.68;;;17.10;99.90;;;;;;5068137;28;20052;-63
2021/09/01 07:56:29;;;;;;;17.92;5.90;;;17.20;99.90;;;;;;5068385;28;20095;-61
2021/09/01 07:58:55;;;;;;;14.00;5.40;;;17.20;99.90;;;;;;5073809;28;20189;-63
2021/09/01 08:01:21;;;;;;;11.75;5.43;;;17.20;99.90;;;;;;5078755;28;20461;-63
2021/09/01 08:03:47;;;;;;;19.17;6.20;;;17.30;99.90;;;;;;5068917;28;20056;-62
2021/09/01 08:06:13;;;;;;;15.15;5.50;;;17.30;99.90;;;;;;5069048;28;20106;-62
2021/09/01 08:08:39;;;;;;;14.57;5.60;;;17.30;99.90;;;;;;5068503;28;20091;-63
2021/09/01 08:11:05;;;;;;;13.60;5.78;;;17.40;99.90;;;;;;5069249;28;20052;-62
2021/09/01 08:13:31;;;;;;;11.65;5.25;;;17.40;99.90;;;;;;5069017;28;20056;-62
2021/09/01 08:15:57;;;;;;;13.05;5.10;;;17.40;99.90;;;;;;5089827;28;20066;-62
2021/09/01 08:18:23;;;;;;;14.32;4.90;;;17.40;99.90;;;;;;5088361;28;20105;-62
2021/09/01 08:20:49;;;;;;;12.38;4.90;;;17.40;99.90;;;;;;5103079;28;20571;-63
2021/09/01 08:23:15;;;;;;;15.85;5.72;;;17.50;99.90;;;;;;5088706;28;20139;-64
2021/09/01 08:25:41;;;;;;;11.60;4.50;;;17.50;99.90;;;;;;5088539;28;20546;-63
2021/09/01 08:28:07;;;;;;;14.23;5.18;;;17.50;99.90;;;;;;5070386;28;20125;-63
2021/09/01 08:30:33;;;;;;;15.57;5.28;;;17.50;99.90;;;;;;5068780;28;20056;-62
2021/09/01 08:32:59;;;;;;;13.10;5.30;;;17.60;99.90;;;;;;5068157;28;20084;-64
2021/09/01 08:35:26;;;;;;;17.30;4.85;;;17.70;99.90;;;;;;5085937;28;20055;-63
2021/09/01 08:37:52;;;;;;;15.27;5.25;;;17.80;99.90;;;;;;5070536;28;20055;-64
2021/09/01 08:40:18;;;;;;;16.73;5.60;;;17.90;99.90;;;;;;5122450;27;20107;-62
2021/09/01 08:42:46;;;;;;;13.32;4.97;;;17.90;99.90;;;;;;5055106;28;20064;-63
2021/09/01 08:45:12;;;;;;;11.85;4.50;;;18.00;99.90;;;;;;5068644;28;20056;-63
2021/09/01 08:47:39;;;;;;;14.35;5.22;;;17.90;99.90;;;;;;5050297;28;20049;-63
2021/09/01 08:50:08;;;;;;;14.95;4.70;;;18.00;99.90;;;;;;5100558;28;20879;-63
2021/09/01 08:52:38;;;;;;;13.02;4.60;;;18.00;99.90;;;;;;5068069;28;20353;-63
2021/09/01 08:55:12;;;;;;;15.82;4.80;;;18.10;99.90;;;;;;5101781;28;20784;-62
2021/09/01 08:57:39;;;;;;;12.15;4.50;;;18.20;99.90;;;;;;5067090;28;20052;-63
2021/09/01 09:00:07;;;;;;;20.42;5.13;;;18.40;99.90;;;;;;5068663;28;20087;-63
2021/09/01 09:02:33;;;;;;;12.30;4.75;;;18.40;99.90;;;;;;5080197;28;20051;-63
2021/09/01 09:05:04;;;;;;;11.43;3.75;;;18.50;99.90;;;;;;5070390;28;20822;-63
2021/09/01 09:07:30;;;;;;;9.10;4.28;;;18.60;99.90;;;;;;5068326;28;20072;-63
2021/09/01 09:09:57;;;;;;;13.57;3.97;;;18.60;99.90;;;;;;5068354;28;20093;-62
2021/09/01 09:12:32;;;;;;;11.27;4.43;;;18.80;99.90;;;;;;5068849;28;20056;-62
2021/09/01 09:14:58;;;;;;;13.68;4.70;;;18.90;99.90;;;;;;5050972;28;20052;-63
2021/09/01 09:17:34;;;;;;;13.30;4.97;;;18.90;99.90;;;;;;5068498;28;20113;-64
2021/09/01 09:20:04;;;;;;;12.75;4.63;;;19.10;99.90;;;;;;5100885;28;20091;-63
2021/09/01 09:22:38;;;;;;;11.15;4.65;;;19.30;99.90;;;;;;5068356;28;20836;-63
2021/09/01 09:25:14;;;;;;;11.77;4.93;;;19.40;99.90;;;;;;5089713;28;20056;-62
2021/09/01 09:27:47;;;;;;;14.40;4.55;;;19.30;99.90;;;;;;5091890;28;20059;-64
2021/09/01 09:30:20;;;;;;;11.02;5.40;;;19.40;99.90;;;;;;5090677;28;20135;-63
2021/09/01 09:33:06;;;;;;;14.52;4.63;;;19.50;99.90;;;;;;5092000;28;20056;-63
2021/09/01 09:35:56;;;;;;;12.70;4.78;;;19.40;99.90;;;;;;5091953;28;20143;-64
2021/09/01 09:38:45;;;;;;;11.27;4.28;;;19.50;99.90;;;;;;5090302;28;20056;-63
2021/09/01 09:41:32;;;;;;;12.80;4.63;;;19.50;99.90;;;;;;5090731;28;20059;-62
2021/09/01 09:44:04;;;;;;;14.00;6.22;;;19.50;99.90;;;;;;5090020;28;20053;-63
2021/09/01 09:46:31;;;;;;;12.45;4.80;;;19.50;99.90;;;;;;5092380;28;20610;-62
2021/09/01 09:49:08;;;;;;;13.50;4.72;;;19.50;99.90;;;;;;5090460;28;20113;-63
2021/09/01 09:51:37;;;;;;;11.80;4.00;;;19.50;99.90;;;;;;5091435;28;20117;-63
2021/09/01 09:54:13;;;;;;;12.93;4.43;;;19.40;99.90;;;;;;5091977;28;20044;-63
2021/09/01 09:56:41;;;;;;;11.90;4.38;;;19.50;99.90;;;;;;5091489;28;20081;-62
2021/09/01 09:59:12;;;;;;;16.63;4.88;;;19.40;99.90;;;;;;5091371;28;20060;-63
2021/09/01 10:01:38;;;;;;;12.57;4.93;;;19.40;99.90;;;;;;5091847;28;20056;-62
2021/09/01 10:04:05;;;;;;;12.63;4.45;;;19.30;99.90;;;;;;5090139;28;20051;-63
2021/09/01 10:06:32;;;;;;;15.30;5.18;;;19.20;99.90;;;;;;5089461;28;20055;-62
2021/09/01 10:09:01;;;;;;;12.15;4.40;;;19.20;99.90;;;;;;5081866;28;20093;-62
2021/09/01 10:11:27;;;;;;;13.00;4.32;;;19.30;99.90;;;;;;5070057;28;20139;-62
2021/09/01 10:13:53;;;;;;;14.55;4.75;;;19.40;99.90;;;;;;5071148;28;20048;-62
2021/09/01 10:16:19;;;;;;;12.85;4.55;;;19.50;99.90;;;;;;5053152;28;20086;-63
2021/09/01 10:18:58;;;;;;;10.85;4.85;;;19.60;99.90;;;;;;5072302;28;20182;-62
2021/09/01 10:21:32;;;;;;;16.08;4.72;;;19.70;99.90;;;;;;5088725;28;20275;-63
2021/09/01 10:24:35;;;;;;;10.55;4.30;;;19.80;99.90;;;;;;5090609;28;20480;-62
2021/09/01 10:27:24;;;;;;;13.18;4.13;;;19.90;99.90;;;;;;5089726;28;20070;-62
2021/09/01 10:29:56;;;;;;;9.52;3.97;;;19.90;99.90;;;;;;5089204;28;20051;-63
2021/09/01 10:32:44;;;;;;;12.20;5.03;;;19.90;99.90;;;;;;5071790;28;20056;-63
2021/09/01 10:35:13;;;;;;;15.88;4.95;;;20.10;99.90;;;;;;5086835;28;20055;-63
2021/09/01 10:37:39;;;;;;;12.25;3.83;;;20.10;99.90;;;;;;5086764;28;20058;-62
2021/09/01 10:40:09;;;;;;;15.13;7.53;;;20.00;99.90;;;;;;5088345;28;20052;-55
2021/09/01 10:42:43;;;;;;;14.95;7.97;;;19.80;99.90;;;;;;5086004;28;20055;-49
2021/09/01 10:45:11;;;;;;;14.43;4.93;;;20.00;99.90;;;;;;5090320;28;20044;-55
2021/09/01 10:47:52;;;;;;;14.23;4.60;;;19.90;99.90;;;;;;5088490;28;20060;-47
2021/09/01 10:50:31;;;;;;;13.70;5.28;;;19.90;99.90;;;;;;5070701;28;20705;-48
2021/09/01 10:53:15;;;;;;;14.30;5.03;;;20.00;99.90;;;;;;5086005;28;20059;-47
2021/09/01 10:56:13;;;;;;;14.60;6.63;;;20.00;99.90;;;;;;5070313;28;20053;-55
2021/09/01 10:58:43;;;;;;;16.15;5.45;;;19.70;99.90;;;;;;5078214;28;20054;-56
2021/09/01 11:01:21;;;;;;;19.00;9.65;;;19.80;99.90;;;;;;5089296;28;20073;-55
2021/09/01 11:03:52;;;;;;;14.55;4.45;;;19.80;99.90;;;;;;5088662;28;20400;-52
2021/09/01 11:06:28;;;;;;;12.02;4.82;;;19.60;99.90;;;;;;5088929;28;20416;-54
2021/09/01 11:08:56;;;;;;;12.73;5.10;;;19.50;99.90;;;;;;5088466;28;20496;-56
2021/09/01 11:11:22;;;;;;;14.23;5.05;;;19.70;99.90;;;;;;5074575;28;20048;-55
2021/09/01 11:13:48;;;;;;;11.30;4.28;;;19.60;99.90;;;;;;5074503;28;20146;-54
2021/09/01 11:16:22;;;;;;;10.23;4.22;;;19.50;99.90;;;;;;5086571;28;20099;-55
2021/09/01 11:19:05;;;;;;;11.70;5.10;;;19.70;99.90;;;;;;5068994;28;20063;-52
2021/09/01 11:21:32;;;;;;;14.93;5.32;;;19.60;99.90;;;;;;5068633;28;20059;-54
2021/09/01 11:24:00;;;;;;;20.05;11.40;;;19.60;99.90;;;;;;5082453;28;20130;-54
2021/09/01 11:26:31;;;;;;;11.75;5.07;;;19.80;99.90;;;;;;5086044;28;20052;-54
2021/09/01 11:29:00;;;;;;;12.45;4.15;;;19.80;99.90;;;;;;5080094;28;20048;-57
2021/09/01 11:31:27;;;;;;;9.40;4.70;;;19.90;99.90;;;;;;5087000;28;20052;-52
2021/09/01 11:33:55;;;;;;;12.75;4.72;;;19.90;99.90;;;;;;5088261;28;20108;-55
2021/09/01 11:36:27;;;;;;;11.07;4.18;;;20.00;99.90;;;;;;5088370;28;20055;-53
2021/09/01 11:38:58;;;;;;;12.52;4.55;;;19.90;99.90;;;;;;5085116;28;20094;-52
2021/09/01 11:41:30;;;;;;;14.82;4.35;;;19.90;99.90;;;;;;5083153;28;20055;-49
2021/09/01 11:44:06;;;;;;;10.00;4.40;;;19.90;99.90;;;;;;5082045;28;20086;-52
2021/09/01 11:46:34;;;;;;;33.10;25.70;;;20.10;99.90;;;;;;5081862;28;20109;-52
2021/09/01 11:49:08;;;;;;;12.45;5.55;;;19.90;99.90;;;;;;5080504;28;20048;-54
2021/09/01 11:51:36;;;;;;;12.20;5.10;;;19.90;99.90;;;;;;5086254;28;20617;-50
2021/09/01 11:54:02;;;;;;;9.07;4.05;;;19.90;99.90;;;;;;5087495;28;20079;-55
2021/09/01 11:56:29;;;;;;;13.25;4.93;;;19.90;99.90;;;;;;5088348;28;20055;-51
2021/09/01 11:59:01;;;;;;;13.98;6.63;;;19.90;99.90;;;;;;5087782;28;20056;-54
2021/09/01 12:01:30;;;;;;;15.07;7.63;;;19.90;99.90;;;;;;5083257;28;20056;-54
2021/09/01 12:03:57;;;;;;;11.32;4.68;;;19.90;99.90;;;;;;5088258;28;20060;-52
2021/09/01 12:06:44;;;;;;;12.55;4.25;;;19.80;99.90;;;;;;5088701;28;20052;-53
2021/09/01 12:09:15;;;;;;;15.43;5.63;;;19.70;99.90;;;;;;5085926;28;20051;-55
2021/09/01 12:11:50;;;;;;;10.88;4.88;;;19.70;99.90;;;;;;5086478;28;20165;-49
2021/09/01 12:14:34;;;;;;;18.63;11.52;;;19.60;99.90;;;;;;5086704;28;20067;-54
2021/09/01 12:17:21;;;;;;;11.82;4.43;;;19.60;99.90;;;;;;5077599;28;20047;-58
2021/09/01 12:19:58;;;;;;;11.38;3.90;;;19.40;99.90;;;;;;5086048;28;20134;-58
2021/09/01 12:22:35;;;;;;;8.68;4.60;;;19.30;99.90;;;;;;5087077;28;20085;-58
2021/09/01 12:25:06;;;;;;;10.90;4.13;;;19.30;99.90;;;;;;5086739;28;20052;-58
2021/09/01 12:27:34;;;;;;;11.82;5.00;;;19.30;99.90;;;;;;5087282;28;20051;-59
2021/09/01 12:30:12;;;;;;;11.52;4.03;;;19.20;99.90;;;;;;5087087;28;20690;-58
2021/09/01 12:32:38;;;;;;;13.07;4.10;;;19.30;99.90;;;;;;5087544;28;20066;-58
2021/09/01 12:35:09;;;;;;;10.07;4.15;;;19.40;99.90;;;;;;5087516;28;20492;-58
2021/09/01 12:37:37;;;;;;;9.82;4.03;;;19.30;99.90;;;;;;5086588;28;20906;-58
2021/09/01 12:40:12;;;;;;;12.02;5.97;;;19.30;99.90;;;;;;5086686;28;20048;-58
2021/09/01 12:42:45;;;;;;;12.15;4.18;;;19.40;99.90;;;;;;5087097;28;20075;-59
2021/09/01 12:45:17;;;;;;;16.55;9.98;;;19.40;99.90;;;;;;5087729;28;20965;-58